Time;durP1;ratioP1;P1;durP2;ratioP2;P2;SDS_P1;SDS_P2;PMS_P1;PMS_P2;Temp;Humidity;BMP_temperature;BMP_pressure;BME280_temperature;BME280_humidity;BME280_pressure;Samples;Min_cycle;Max_cycle;Signal;HPM_P1;HPM_P2
2022/08/19 00:01:26;;;;;;;;;13.75;13.50;;;;;22.31;63.99;100975.56;5092105;28;45222;-91
2022/08/19 00:03:51;;;;;;;;;14.00;14.00;;;;;22.38;63.90;100996.94;5108213;27;46308;-92
2022/08/19 00:06:17;;;;;;;;;16.75;16.00;;;;;22.15;64.46;100980.19;5092445;27;45052;-91
2022/08/19 00:08:43;;;;;;;;;18.25;17.00;;;;;22.04;64.84;100966.88;5090737;28;45253;-88
2022/08/19 00:11:09;;;;;;;;;16.50;16.50;;;;;22.03;64.72;100967.78;5090831;27;45093;-90
2022/08/19 00:13:34;;;;;;;;;15.00;15.00;;;;;22.17;64.59;101005.19;5108345;27;44943;-91
2022/08/19 00:16:00;;;;;;;;;14.25;14.25;;;;;22.16;65.11;101003.38;5107990;27;45107;-90
2022/08/19 00:18:26;;;;;;;;;16.25;14.00;;;;;22.12;64.68;100999.84;5092120;27;45228;-92
2022/08/19 00:20:51;;;;;;;;;12.00;11.75;;;;;22.00;65.59;100988.31;5092145;27;45528;-90
2022/08/19 00:23:17;;;;;;;;;14.50;13.50;;;;;21.99;65.04;101008.84;5091481;27;44901;-91
2022/08/19 00:25:42;;;;;;;;;14.50;13.75;;;;;21.90;65.41;100993.75;5090484;27;45094;-91
2022/08/19 00:28:07;;;;;;;;;16.00;14.00;;;;;21.97;65.29;101008.00;5091815;27;45076;-89
2022/08/19 00:30:33;;;;;;;;;15.50;15.00;;;;;21.88;65.61;100997.34;5091745;27;51620;-91
2022/08/19 00:32:58;;;;;;;;;16.00;15.00;;;;;22.01;65.68;101019.53;5108278;27;48557;-90
2022/08/19 00:35:24;;;;;;;;;14.50;13.00;;;;;21.83;66.03;101004.53;5107817;27;45612;-88
2022/08/19 00:37:50;;;;;;;;;14.50;12.75;;;;;21.76;66.26;100997.44;5107462;27;45073;-89
2022/08/19 00:40:18;;;;;;;;;16.25;15.25;;;;;21.79;66.38;101010.78;5090420;28;45386;-91
2022/08/19 00:42:44;;;;;;;;;14.50;14.50;;;;;21.74;66.40;101023.31;5092048;27;44999;-90
2022/08/19 00:45:20;;;;;;;;;12.75;12.50;;;;;21.64;66.70;101026.06;5092048;27;45027;-89
2022/08/19 00:47:45;;;;;;;;;14.75;13.00;;;;;21.51;67.30;101016.31;5090442;27;45284;-91
2022/08/19 00:50:14;;;;;;;;;15.75;14.75;;;;;21.44;67.41;101011.91;5091933;28;45180;-90
2022/08/19 00:52:47;;;;;;;;;15.25;14.50;;;;;21.30;67.79;100998.63;5089801;28;45483;-86
2022/08/19 00:55:18;;;;;;;;;13.50;13.25;;;;;21.40;67.97;101018.16;5091259;28;45000;-90
2022/08/19 00:57:47;;;;;;;;;15.00;13.75;;;;;21.43;67.86;101036.88;5090601;28;45318;-88
2022/08/19 01:00:17;;;;;;;;;16.25;15.75;;;;;21.23;67.68;100995.94;5089966;27;47578;-86
2022/08/19 01:02:43;;;;;;;;;14.00;14.00;;;;;21.32;68.52;101018.19;5107492;27;45165;-87
2022/08/19 01:05:14;;;;;;;;;13.25;12.75;;;;;21.13;68.05;100990.66;5107328;27;45044;-92
2022/08/19 01:07:41;;;;;;;;;11.75;11.75;;;;;21.20;68.73;101004.00;5107245;27;45035;-90
2022/08/19 01:10:10;;;;;;;;;15.75;15.75;;;;;21.31;68.21;101037.81;5091259;28;45949;-91
2022/08/19 01:12:38;;;;;;;;;18.00;16.50;;;;;21.23;68.24;101028.00;5089439;27;45462;-90
2022/08/19 01:15:06;;;;;;;;;12.00;11.00;;;;;21.05;68.72;100989.78;5091029;27;45043;-89
2022/08/19 01:17:32;;;;;;;;;15.50;15.25;;;;;21.21;68.57;101016.44;5090966;27;45031;-90
2022/08/19 01:19:57;;;;;;;;;17.00;15.50;;;;;21.14;68.69;101023.63;5090997;27;45837;-88
2022/08/19 01:22:22;;;;;;;;;14.75;14.50;;;;;21.18;68.84;101040.50;5109512;27;44985;-90
2022/08/19 01:24:48;;;;;;;;;14.33;13.67;;;;;20.93;69.03;101003.19;5110853;27;44950;-89
2022/08/19 01:27:13;;;;;;;;;15.00;14.00;;;;;20.99;69.36;101011.22;5091559;27;45355;-88
2022/08/19 01:29:42;;;;;;;;;15.00;13.50;;;;;20.97;69.23;101020.09;5110187;27;48367;-87
2022/08/19 01:32:11;;;;;;;;;13.00;13.00;;;;;20.92;69.11;101011.22;5110567;27;45499;-85
2022/08/19 01:34:37;;;;;;;;;14.50;14.25;;;;;21.00;69.40;101026.34;5110697;27;45285;-86
2022/08/19 01:37:10;;;;;;;;;15.75;15.00;;;;;20.93;69.55;101011.22;5093736;27;44894;-90
2022/08/19 01:39:37;;;;;;;;;16.25;14.25;;;;;20.83;69.91;100996.09;5110183;27;46288;-88
2022/08/19 01:42:04;;;;;;;;;14.25;13.50;;;;;20.83;69.65;101001.44;5108090;27;45685;-89
2022/08/19 01:44:29;;;;;;;;;16.00;15.00;;;;;20.90;69.35;101007.69;5093821;27;45076;-90
2022/08/19 01:46:55;;;;;;;;;13.00;12.75;;;;;20.97;69.19;101030.81;5093258;28;45163;-90
2022/08/19 01:49:23;;;;;;;;;16.00;15.50;;;;;20.76;69.48;100994.38;5094302;27;45840;-89
2022/08/19 01:51:49;;;;;;;;;13.75;13.25;;;;;20.96;69.50;101037.94;5093733;27;45557;-88
2022/08/19 01:54:17;;;;;;;;;14.25;14.25;;;;;20.93;69.54;101034.38;5110617;27;45460;-91
2022/08/19 01:56:43;;;;;;;;;16.00;14.00;;;;;20.82;69.71;101016.59;5092470;27;45390;-90
2022/08/19 01:59:12;;;;;;;;;11.00;10.75;;;;;20.91;69.53;101037.06;5094216;27;45927;-91
2022/08/19 02:01:38;;;;;;;;;14.25;14.25;;;;;20.79;69.80;101010.41;5092393;27;45896;-90
2022/08/19 02:04:03;;;;;;;;;14.00;13.25;;;;;20.77;69.89;101006.81;5093250;28;45523;-91
2022/08/19 02:06:29;;;;;;;;;14.00;11.75;;;;;20.71;70.15;101005.06;5094130;28;45356;-87
2022/08/19 02:08:55;;;;;;;;;14.25;13.25;;;;;20.81;70.33;101032.63;5109771;27;46182;-91
2022/08/19 02:11:27;;;;;;;;;16.00;14.75;;;;;20.76;70.50;101031.75;5090179;28;45529;-89
2022/08/19 02:13:53;;;;;;;;;16.25;13.75;;;;;20.73;70.30;101038.00;5093158;28;44969;-91
2022/08/19 02:16:19;;;;;;;;;15.50;15.50;;;;;20.67;70.69;101032.66;5091808;27;44940;-87
2022/08/19 02:18:48;;;;;;;;;15.00;15.00;;;;;20.70;70.60;101031.78;5109697;27;47738;-89
2022/08/19 02:21:15;;;;;;;;;16.50;14.50;;;;;20.71;70.68;101036.22;5093504;28;45116;-91
2022/08/19 02:23:41;;;;;;;;;14.25;14.25;;;;;20.50;70.78;100990.00;5107941;27;44999;-90
2022/08/19 02:26:06;;;;;;;;;15.00;14.00;;;;;20.70;70.51;101039.81;5108799;27;45361;-88
2022/08/19 02:28:32;;;;;;;;;14.25;13.50;;;;;20.70;70.73;101037.13;5093880;27;45651;-86
2022/08/19 02:30:58;;;;;;;;;12.00;12.00;;;;;20.65;70.57;101022.91;5093928;27;45211;-90
2022/08/19 02:33:23;;;;;;;;;12.25;12.25;;;;;20.60;70.52;101026.47;5109955;27;45092;-90
2022/08/19 02:35:49;;;;;;;;;15.00;14.00;;;;;20.46;70.37;101000.63;5108838;27;53143;-89
2022/08/19 02:38:26;;;;;;;;;13.33;13.33;;;;;20.77;70.81;101038.88;5091391;28;52883;-90
2022/08/19 02:40:58;;;;;;;;;16.00;14.00;;;;;20.76;71.08;101042.44;5089978;28;45389;-87
2022/08/19 02:43:28;;;;;;;;;10.75;10.25;;;;;20.53;70.59;101003.31;5094187;27;45090;-90
2022/08/19 02:45:53;;;;;;;;;12.50;11.75;;;;;20.66;71.13;101032.69;5093644;27;45039;-90
2022/08/19 02:48:20;;;;;;;;;15.50;14.00;;;;;20.66;71.29;101036.25;5109588;27;47390;-88
2022/08/19 02:50:46;;;;;;;;;13.75;12.75;;;;;20.36;71.20;100989.97;5106955;27;45606;-83
2022/08/19 02:53:12;;;;;;;;;13.00;12.25;;;;;20.70;71.50;101046.03;5092439;27;45047;-87
2022/08/19 02:55:46;;;;;;;;;9.25;8.50;;;;;20.63;71.60;101030.00;5089732;27;45429;-87
2022/08/19 02:58:12;;;;;;;;;14.50;14.50;;;;;20.49;71.62;101003.31;5109106;27;47132;-88
2022/08/19 03:00:46;;;;;;;;;14.25;13.25;;;;;20.52;71.60;101012.22;5090603;27;45172;-89
2022/08/19 03:03:11;;;;;;;;;14.75;12.25;;;;;20.64;71.99;101024.69;5093506;27;45071;-90
2022/08/19 03:05:37;;;;;;;;;14.00;12.00;;;;;20.61;71.39;101014.00;5091200;27;45015;-86
2022/08/19 03:08:04;;;;;;;;;15.00;13.75;;;;;20.63;71.40;101011.31;5091754;27;45319;-91
2022/08/19 03:10:29;;;;;;;;;14.50;14.00;;;;;20.64;71.29;100999.72;5088506;27;45673;-88
2022/08/19 03:12:54;;;;;;;;;12.25;12.25;;;;;20.58;71.36;100993.50;5093172;27;44972;-83
2022/08/19 03:15:20;;;;;;;;;13.75;12.50;;;;;20.90;71.71;101040.63;5092711;27;45569;-87
2022/08/19 03:17:45;;;;;;;;;14.50;13.75;;;;;20.77;71.14;101017.50;5093184;28;45959;-90
2022/08/19 03:20:10;;;;;;;;;12.75;12.75;;;;;20.73;71.13;101013.06;5093265;27;45144;-91
2022/08/19 03:22:36;;;;;;;;;13.75;13.75;;;;;20.75;71.88;101020.19;5093187;27;45128;-91
2022/08/19 03:25:01;;;;;;;;;13.00;13.00;;;;;20.81;71.55;101037.97;5093504;27;45192;-92
2022/08/19 03:27:26;;;;;;;;;14.50;13.75;;;;;20.67;72.10;101003.28;5090999;27;45322;-91
2022/08/19 03:29:52;;;;;;;;;14.50;13.50;;;;;20.84;71.49;101021.94;5108783;27;45110;-90
2022/08/19 03:32:17;;;;;;;;;13.25;13.25;;;;;20.87;72.58;101016.56;5092262;27;45379;-90
2022/08/19 03:34:42;;;;;;;;;12.25;11.50;;;;;20.81;72.00;100989.88;5108529;27;44951;-89
2022/08/19 03:37:14;;;;;;;;;13.00;11.50;;;;;20.82;71.84;100989.00;5092235;27;45371;-91
2022/08/19 03:39:41;;;;;;;;;15.50;14.50;;;;;20.93;71.43;101011.22;5108387;27;45164;-89
2022/08/19 03:42:08;;;;;;;;;16.25;15.50;;;;;21.04;71.11;101022.78;5090807;28;45098;-89
2022/08/19 03:44:36;;;;;;;;;16.75;14.50;;;;;21.06;71.03;101023.63;5092397;27;45074;-89
2022/08/19 03:47:01;;;;;;;;;15.00;13.75;;;;;21.07;71.88;101027.19;5091941;27;45246;-90
2022/08/19 03:49:32;;;;;;;;;14.25;13.75;;;;;21.25;71.06;101052.97;5092535;27;44961;-88
2022/08/19 03:52:00;;;;;;;;;14.50;14.00;;;;;21.25;70.68;101037.81;5090126;27;45073;-91
2022/08/19 03:54:26;;;;;;;;;15.25;13.50;;;;;21.23;71.14;101026.25;5107788;27;44962;-90
2022/08/19 03:56:54;;;;;;;;;16.00;15.50;;;;;21.27;70.67;101036.00;5088497;28;47882;-91
2022/08/19 03:59:33;;;;;;;;;15.00;13.25;;;;;21.03;70.37;100986.25;5108019;27;45137;-89
2022/08/19 04:02:01;;;;;;;;;13.75;13.00;;;;;21.38;70.62;101038.69;5092564;27;44971;-89
2022/08/19 04:04:28;;;;;;;;;16.00;13.25;;;;;21.41;70.63;101044.00;5092736;28;45076;-89
2022/08/19 04:06:53;;;;;;;;;11.50;10.75;;;;;21.31;70.66;101021.78;5089170;27;46654;-90
2022/08/19 04:09:19;;;;;;;;;15.33;15.33;;;;;21.37;70.23;101027.09;5107865;27;50812;-90
2022/08/19 04:11:55;;;;;;;;;11.75;11.50;;;;;21.46;70.81;101036.84;5088053;27;45321;-91
2022/08/19 04:14:24;;;;;;;;;11.50;11.00;;;;;21.48;70.32;101028.84;5108006;27;45095;-89
2022/08/19 04:16:51;;;;;;;;;13.25;11.00;;;;;21.48;70.27;101034.19;5091930;27;45953;-89
2022/08/19 04:19:18;;;;;;;;;11.75;10.50;;;;;21.40;69.91;101018.16;5107999;27;45094;-91
2022/08/19 04:21:45;;;;;;;;;11.75;11.50;;;;;21.31;70.18;101000.38;5091873;27;45137;-90
2022/08/19 04:24:12;;;;;;;;;11.75;11.00;;;;;21.53;70.65;101037.72;5091825;27;44963;-89
2022/08/19 04:26:38;;;;;;;;;15.75;13.75;;;;;21.38;69.50;101017.31;5104648;27;47562;-87
2022/08/19 04:29:10;;;;;;;;;12.50;12.50;;;;;21.37;69.70;101015.50;5107663;27;45317;-86
2022/08/19 04:31:35;;;;;;;;;11.00;10.00;;;;;21.33;69.49;101003.97;5090002;27;45157;-90
2022/08/19 04:34:04;;;;;;;;;11.00;11.00;;;;;21.58;69.50;101042.16;5091637;27;45364;-89
2022/08/19 04:36:32;;;;;;;;;12.00;12.00;;;;;21.43;69.98;101011.91;5091130;28;45804;-84
2022/08/19 04:39:00;;;;;;;;;11.25;11.25;;;;;21.61;70.13;101047.47;5107505;27;45349;-89
2022/08/19 04:44:11;;;;;;;;;9.25;9.25;;;;;21.40;69.61;101025.31;5091928;28;44913;-85
2022/08/19 04:46:37;;;;;;;;;9.75;9.25;;;;;21.30;69.62;101003.03;5090149;28;45288;-86
2022/08/19 04:49:04;;;;;;;;;9.50;8.75;;;;;21.48;69.48;101024.38;5091850;27;45031;-90
2022/08/19 04:51:31;;;;;;;;;10.75;10.75;;;;;21.42;69.72;101013.69;5091902;27;45017;-88
2022/08/19 04:53:57;;;;;;;;;9.50;8.75;;;;;21.46;69.58;101027.94;5091906;27;45274;-84
2022/08/19 04:56:26;;;;;;;;;11.00;10.25;;;;;21.61;69.98;101063.50;5107772;27;46293;-89
2022/08/19 04:58:52;;;;;;;;;9.00;9.00;;;;;21.64;69.57;101070.63;5110952;27;45087;-89
2022/08/19 05:01:21;;;;;;;;;10.00;10.00;;;;;21.51;69.45;101040.38;5094910;27;45105;-88
2022/08/19 05:03:47;;;;;;;;;10.00;10.00;;;;;21.45;69.68;101027.06;5111187;27;45047;-88
2022/08/19 05:06:14;;;;;;;;;8.75;8.75;;;;;21.44;69.80;101033.31;5110162;27;47065;-88
2022/08/19 05:08:43;;;;;;;;;8.75;8.50;;;;;21.54;69.41;101043.06;5095090;28;45164;-89
2022/08/19 05:11:21;;;;;;;;;9.25;8.50;;;;;21.70;69.66;101062.56;5093254;27;44988;-86
2022/08/19 05:13:48;;;;;;;;;10.75;10.75;;;;;21.71;69.79;101069.69;5095116;27;45052;-87
2022/08/19 05:16:15;;;;;;;;;9.25;8.75;;;;;21.58;69.41;101046.59;5092768;28;46719;-85
2022/08/19 05:24:11;;;;;;;;;9.50;9.00;;;;;21.75;69.15;101073.25;5095016;28;44965;-86
2022/08/19 05:26:38;;;;;;;;;9.75;9.75;;;;;21.60;69.64;101052.81;5092967;27;45394;-85
2022/08/19 05:29:05;;;;;;;;;10.25;9.00;;;;;21.66;69.21;101065.28;5094344;27;45668;-89
2022/08/19 05:31:30;;;;;;;;;8.50;8.50;;;;;21.57;68.88;101051.03;5094826;27;45056;-90
2022/08/19 05:33:58;;;;;;;;;10.75;10.00;;;;;21.54;69.40;101051.09;5094802;28;45166;-87
2022/08/19 05:36:25;;;;;;;;;10.00;9.00;;;;;21.56;69.42;101053.75;5094118;27;45279;-87
2022/08/19 05:38:50;;;;;;;;;6.00;6.00;;;;;21.55;69.37;101055.53;5110396;27;45186;-86
2022/08/19 05:41:17;;;;;;;;;9.50;8.25;;;;;21.52;68.94;101047.50;5093516;27;44998;-90
2022/08/19 05:43:42;;;;;;;;;8.25;8.25;;;;;21.77;69.52;101093.75;5110785;27;45149;-90
2022/08/19 05:46:08;;;;;;;;;9.00;7.50;;;;;21.64;69.33;101067.97;5092264;27;45723;-86
2022/08/19 05:48:35;;;;;;;;;8.75;8.50;;;;;21.42;69.74;101029.72;5094077;28;45070;-90
2022/08/19 05:51:08;;;;;;;;;10.00;8.75;;;;;21.70;69.16;101061.69;5093440;27;44937;-88
2022/08/19 05:53:35;;;;;;;;;5.25;5.25;;;;;21.85;69.63;101091.03;5093533;27;44956;-91
2022/08/19 05:56:09;;;;;;;;;9.50;9.25;;;;;21.70;69.08;101051.00;5093201;27;45321;-91
2022/08/19 05:58:36;;;;;;;;;7.00;7.00;;;;;21.74;69.61;101058.09;5094288;27;45190;-89
2022/08/19 06:01:05;;;;;;;;;7.50;7.00;;;;;21.55;69.60;101023.44;5094165;27;44946;-90
2022/08/19 06:03:33;;;;;;;;;7.00;7.00;;;;;21.85;69.23;101077.66;5094058;27;45094;-85
2022/08/19 06:05:59;;;;;;;;;8.00;7.25;;;;;21.81;69.67;101071.41;5093527;27;45426;-91
2022/08/19 06:08:26;;;;;;;;;7.25;7.25;;;;;21.79;69.33;101067.88;5094481;27;45381;-90
2022/08/19 06:10:52;;;;;;;;;5.75;5.75;;;;;21.92;69.17;101089.19;5091881;28;45308;-91
2022/08/19 06:13:19;;;;;;;;;6.00;6.00;;;;;21.93;69.62;101081.16;5110194;27;45022;-90
2022/08/19 06:15:46;;;;;;;;;4.00;4.00;;;;;21.81;69.70;101059.81;5095231;27;45294;-90
2022/08/19 06:18:12;;;;;;;;;4.00;3.25;;;;;21.92;69.64;101089.19;5095111;27;45450;-91
2022/08/19 06:20:38;;;;;;;;;3.00;3.00;;;;;21.94;69.32;101101.69;5094048;27;44946;-90
2022/08/19 06:23:03;;;;;;;;;4.25;4.25;;;;;21.77;70.04;101079.47;5093969;27;45098;-89
2022/08/19 06:25:29;;;;;;;;;3.00;3.00;;;;;21.80;69.95;101075.00;5091430;27;45409;-89
2022/08/19 06:27:54;;;;;;;;;3.75;3.25;;;;;21.83;70.05;101079.47;5093849;27;45075;-90
2022/08/19 06:30:19;;;;;;;;;3.00;3.00;;;;;21.95;69.72;101091.84;5094031;27;44894;-91
2022/08/19 06:32:45;;;;;;;;;4.00;4.00;;;;;21.90;69.72;101086.53;5093860;27;45195;-89
2022/08/19 06:35:11;;;;;;;;;1.75;1.75;;;;;21.66;69.41;101044.75;5093806;27;45670;-89
2022/08/19 06:37:37;;;;;;;;;3.00;2.00;;;;;22.12;69.94;101120.34;5093471;27;45141;-90
2022/08/19 06:40:03;;;;;;;;;2.00;2.00;;;;;22.12;69.58;101114.09;5094056;27;45001;-91
2022/08/19 06:42:29;;;;;;;;;2.00;2.00;;;;;22.00;69.50;101072.19;5089884;28;44981;-91
2022/08/19 06:44:54;;;;;;;;;2.25;2.00;;;;;22.30;70.69;101118.41;5092185;27;45255;-88
2022/08/19 06:47:21;;;;;;;;;1.50;1.50;;;;;22.29;68.99;101100.56;5093788;27;45273;-91
2022/08/19 06:49:46;;;;;;;;;4.00;3.00;;;;;22.30;69.18;101105.91;5093353;27;44942;-91
2022/08/19 06:52:12;;;;;;;;;2.50;2.50;;;;;22.28;69.69;101101.47;5092873;27;48533;-90
2022/08/19 06:54:39;;;;;;;;;3.50;3.50;;;;;22.42;69.04;101112.09;5109547;27;47327;-91
2022/08/19 06:57:06;;;;;;;;;3.00;3.00;;;;;22.49;69.02;101129.88;5090053;28;45195;-91
2022/08/19 06:59:32;;;;;;;;;3.00;3.00;;;;;22.38;69.42;101121.94;5093349;27;45071;-88
2022/08/19 07:02:00;;;;;;;;;2.00;2.00;;;;;22.38;69.47;101111.22;5093655;27;45192;-89
2022/08/19 07:04:34;;;;;;;;;2.25;2.25;;;;;22.51;68.60;101134.31;5109180;27;48021;-90
2022/08/19 07:07:01;;;;;;;;;3.25;2.25;;;;;22.51;68.98;101134.31;5089495;27;45525;-89
2022/08/19 07:09:27;;;;;;;;;3.00;2.25;;;;;22.52;69.04;101122.72;5093588;28;45023;-88
2022/08/19 07:11:54;;;;;;;;;2.75;2.00;;;;;22.54;69.14;101123.56;5090110;27;45102;-89
2022/08/19 07:14:24;;;;;;;;;11.00;11.00;;;;;22.63;68.92;101136.88;5093462;27;45365;-88
2022/08/19 07:16:51;;;;;;;;;3.00;3.00;;;;;22.65;69.76;101142.22;5092969;27;45931;-89
2022/08/19 07:19:18;;;;;;;;;3.75;3.50;;;;;22.70;69.37;101148.44;5092878;27;45332;-89
2022/08/19 07:21:46;;;;;;;;;4.50;4.50;;;;;22.66;69.33;101130.63;5092908;27;45071;-90
2022/08/19 07:24:12;;;;;;;;;5.00;4.75;;;;;22.42;68.54;101093.34;5092913;28;45757;-86
2022/08/19 07:26:41;;;;;;;;;4.00;3.25;;;;;22.44;69.33;101094.19;5090640;28;44917;-89
2022/08/19 07:29:06;;;;;;;;;5.50;5.50;;;;;22.74;68.84;101141.25;5092826;27;45048;-89
2022/08/19 07:31:36;;;;;;;;;4.75;4.00;;;;;22.65;68.24;101119.00;5092518;27;44995;-87
2022/08/19 07:34:06;;;;;;;;;2.25;2.25;;;;;22.85;69.44;101139.34;5091609;28;46181;-88
2022/08/19 07:36:33;;;;;;;;;5.00;3.00;;;;;22.89;68.04;101138.47;5091961;27;45079;-91
2022/08/19 07:39:03;;;;;;;;;3.00;3.00;;;;;22.51;68.03;101079.84;5108467;27;45138;-89
2022/08/19 07:41:31;;;;;;;;;2.50;2.50;;;;;22.74;68.17;101127.88;5091095;27;45441;-86
2022/08/19 07:44:01;;;;;;;;;2.50;2.50;;;;;22.74;69.00;101141.25;5091398;28;47508;-90
2022/08/19 07:46:28;;;;;;;;;3.00;3.00;;;;;22.61;68.59;101122.63;5092191;27;45427;-91
2022/08/19 07:48:53;;;;;;;;;2.00;2.00;;;;;22.49;68.46;101097.72;5108835;27;45058;-88
2022/08/19 07:51:21;;;;;;;;;3.00;2.00;;;;;22.75;68.60;101137.66;5090736;27;45145;-89
2022/08/19 07:53:50;;;;;;;;;2.00;2.00;;;;;22.80;68.71;101134.03;5092162;27;46624;-91
2022/08/19 07:56:17;;;;;;;;;3.00;3.00;;;;;22.83;68.84;101127.78;5090426;27;45040;-90
2022/08/19 07:58:45;;;;;;;;;2.00;2.00;;;;;22.85;68.98;101118.81;5092838;27;44937;-90
2022/08/19 08:01:16;;;;;;;;;3.00;3.00;;;;;22.96;68.18;101125.91;5092228;27;44850;-91
2022/08/19 08:09:11;;;;;;;;;3.00;3.00;;;;;23.06;67.80;101127.59;5092632;28;45142;-91
2022/08/19 08:11:41;;;;;;;;;4.00;4.00;;;;;23.07;67.71;101132.03;5104199;27;45442;-89
2022/08/19 08:14:09;;;;;;;;;2.00;2.00;;;;;22.92;68.38;101120.56;5092035;27;45333;-90
2022/08/19 08:16:36;;;;;;;;;3.00;3.00;;;;;23.10;67.81;101142.72;5091361;28;45475;-88
2022/08/19 08:19:06;;;;;;;;;3.00;3.00;;;;;23.00;68.32;101130.31;5092082;27;45002;-90
2022/08/19 08:21:33;;;;;;;;;2.25;2.25;;;;;23.10;67.90;101162.41;5103798;27;45973;-91
2022/08/19 08:23:59;;;;;;;;;1.75;1.75;;;;;22.96;68.26;101131.28;5107623;27;47551;-91
2022/08/19 08:26:25;;;;;;;;;1.75;1.00;;;;;23.00;68.02;101128.50;5089274;27;51122;-87
2022/08/19 08:28:51;;;;;;;;;2.00;2.00;;;;;23.05;68.19;101153.47;5091750;27;45076;-88
2022/08/19 08:31:18;;;;;;;;;3.00;3.00;;;;;23.10;67.75;101157.03;5113887;27;45016;-91
2022/08/19 08:33:44;;;;;;;;;2.00;2.00;;;;;23.05;68.49;101158.84;5097815;27;46370;-89
2022/08/19 08:36:10;;;;;;;;;3.00;3.00;;;;;23.02;68.58;101152.66;5097048;27;45306;-87
2022/08/19 08:38:36;;;;;;;;;1.25;1.25;;;;;22.95;68.04;101127.66;5113587;27;45016;-88
2022/08/19 08:41:19;;;;;;;;;2.00;2.00;;;;;22.84;67.62;101113.47;5111494;27;45427;-91
2022/08/19 08:43:47;;;;;;;;;2.25;1.75;;;;;22.96;68.19;101136.63;5115372;27;47064;-89
2022/08/19 08:46:25;;;;;;;;;2.25;2.25;;;;;22.75;68.21;101097.47;5098835;28;44994;-91
2022/08/19 08:49:07;;;;;;;;;2.00;2.00;;;;;23.15;67.74;101160.56;5115964;27;44929;-86
2022/08/19 08:51:38;;;;;;;;;4.00;3.00;;;;;23.16;67.75;101148.91;5115750;27;45133;-88
2022/08/19 08:54:10;;;;;;;;;1.75;1.75;;;;;23.32;67.66;101165.72;5097137;28;47396;-90
2022/08/19 08:56:39;;;;;;;;;2.25;2.25;;;;;23.40;67.89;101162.97;5097349;27;45121;-91
2022/08/19 08:59:21;;;;;;;;;2.50;2.50;;;;;23.36;67.02;101146.00;5097418;28;45119;-88
2022/08/19 09:01:47;;;;;;;;;3.00;3.00;;;;;23.26;67.34;101119.31;5114293;27;45229;-90
2022/08/19 09:04:13;;;;;;;;;3.00;3.00;;;;;23.30;67.76;101131.75;5098482;27;45248;-89
2022/08/19 09:06:51;;;;;;;;;3.25;2.00;;;;;23.47;67.08;101161.97;5114421;27;45557;-89
2022/08/19 09:09:30;;;;;;;;;2.50;2.50;;;;;23.34;67.14;101136.19;5114184;27;45043;-89
2022/08/19 09:12:17;;;;;;;;;2.00;2.00;;;;;23.52;67.36;101159.25;5096228;27;45602;-89
2022/08/19 09:14:56;;;;;;;;;2.75;2.00;;;;;23.18;66.82;101093.47;5097811;27;45577;-90
2022/08/19 09:17:33;;;;;;;;;2.00;2.00;;;;;23.53;67.69;101139.53;5114505;27;45060;-90
2022/08/19 09:20:13;;;;;;;;;2.75;2.75;;;;;23.68;67.29;101151.00;5114364;27;44979;-90
2022/08/19 09:22:43;;;;;;;;;5.00;4.25;;;;;23.52;67.88;101103.78;5114197;27;45170;-90
2022/08/19 09:25:11;;;;;;;;;3.00;2.25;;;;;23.92;66.63;101146.22;5127877;27;46984;-88
2022/08/19 09:27:39;;;;;;;;;2.75;2.00;;;;;23.79;66.33;101109.69;5108387;27;44970;-90
2022/08/19 09:30:07;;;;;;;;;1.00;1.00;;;;;24.04;65.81;101142.47;5102236;28;45003;-87
2022/08/19 09:32:33;;;;;;;;;4.50;4.00;;;;;24.04;66.24;101129.94;5098330;27;45134;-88
2022/08/19 09:35:01;;;;;;;;;3.00;3.00;;;;;24.12;65.71;101117.28;5113702;27;47550;-90
2022/08/19 09:37:27;;;;;;;;;3.00;2.75;;;;;24.40;65.49;101141.06;5113871;27;45522;-86
2022/08/19 09:39:52;;;;;;;;;2.00;2.00;;;;;24.41;64.94;101121.34;5131195;27;45165;-86
2022/08/19 09:42:18;;;;;;;;;2.00;2.00;;;;;24.43;64.33;101106.97;5095872;27;45057;-89
2022/08/19 09:44:44;;;;;;;;;3.00;3.00;;;;;24.61;64.54;101129.94;5098780;27;45844;-87
2022/08/19 09:47:11;;;;;;;;;1.25;1.25;;;;;24.42;63.89;101081.00;5094816;28;45497;-90
2022/08/19 09:49:38;;;;;;;;;1.75;1.75;;;;;24.65;63.92;101118.22;5112923;27;45075;-91
2022/08/19 09:52:04;;;;;;;;;3.50;3.00;;;;;24.76;63.73;101109.09;5095869;27;44934;-89
2022/08/19 09:54:29;;;;;;;;;3.50;2.00;;;;;24.80;63.76;101109.00;5096542;27;46410;-89
2022/08/19 09:56:57;;;;;;;;;2.00;2.00;;;;;25.00;63.77;101127.47;5098402;27;46026;-86
2022/08/19 09:59:23;;;;;;;;;3.00;3.00;;;;;24.93;63.09;101115.06;5098546;27;45017;-90
2022/08/19 10:01:48;;;;;;;;;2.25;2.00;;;;;24.94;63.23;101114.13;5114803;27;45082;-89
2022/08/19 10:04:13;;;;;;;;;2.00;2.00;;;;;24.77;63.26;101100.09;5095428;28;45376;-89
2022/08/19 10:06:39;;;;;;;;;3.00;3.00;;;;;24.99;63.05;101131.06;5095874;27;44967;-87
2022/08/19 10:09:07;;;;;;;;;2.25;2.00;;;;;24.86;62.95;101119.63;5094788;28;45210;-90
2022/08/19 10:11:36;;;;;;;;;2.75;2.50;;;;;24.91;63.08;101124.94;5095458;27;45303;-89
2022/08/19 10:14:05;;;;;;;;;1.25;1.00;;;;;24.85;63.01;101103.53;5111935;27;46598;-88
2022/08/19 10:16:31;;;;;;;;;1.50;1.50;;;;;25.00;63.10;101122.09;5111059;27;45442;-86
2022/08/19 10:18:57;;;;;;;;;1.25;1.25;;;;;24.98;62.17;101115.84;5111116;27;45046;-89
2022/08/19 10:21:26;;;;;;;;;1.00;1.00;;;;;25.04;62.99;101139.94;5090975;27;45323;-90
2022/08/19 10:23:55;;;;;;;;;3.00;2.00;;;;;24.84;62.86;101108.03;5095075;27;45373;-87
2022/08/19 10:26:32;;;;;;;;;2.50;2.00;;;;;24.77;62.32;101105.47;5091729;28;45086;-90
2022/08/19 10:28:58;;;;;;;;;3.00;2.50;;;;;24.71;63.44;101112.75;5097492;27;44884;-89
2022/08/19 10:31:29;;;;;;;;;2.00;2.00;;;;;24.76;64.19;101125.22;5095923;28;44958;-90
2022/08/19 10:33:57;;;;;;;;;1.75;1.75;;;;;24.80;63.98;101130.50;5093647;28;45913;-90
2022/08/19 10:36:25;;;;;;;;;3.00;3.00;;;;;24.71;64.33;101115.44;5094083;27;45133;-89
2022/08/19 10:38:56;;;;;;;;;3.00;3.00;;;;;24.70;63.31;101121.72;5094514;28;44922;-88
2022/08/19 10:41:23;;;;;;;;;1.50;1.00;;;;;24.80;63.47;101133.19;5092312;27;45034;-89
2022/08/19 10:43:57;;;;;;;;;3.00;2.00;;;;;24.92;63.51;101124.00;5094156;27;45556;-90
2022/08/19 10:46:27;;;;;;;;;1.00;1.00;;;;;25.07;63.79;101126.44;5093077;28;45106;-89
2022/08/19 10:48:54;;;;;;;;;3.00;2.50;;;;;25.16;63.13;101107.44;5093167;28;44974;-90
2022/08/19 10:54:05;;;;;;;;;1.50;1.50;;;;;25.64;62.25;101136.97;5094165;27;45471;-91
2022/08/19 10:59:27;;;;;;;;;2.00;2.00;;;;;25.99;61.42;101125.44;5093600;28;45020;-90
2022/08/19 11:01:53;;;;;;;;;1.75;1.75;;;;;26.13;62.58;101126.94;5093870;27;45176;-90
2022/08/19 11:04:19;;;;;;;;;3.00;3.00;;;;;26.20;61.01;101118.66;5094553;27;45244;-89
2022/08/19 11:06:49;;;;;;;;;3.00;3.00;;;;;26.31;60.87;101120.22;5110066;27;45509;-90
2022/08/19 11:09:18;;;;;;;;;2.50;2.50;;;;;26.34;60.38;101112.94;5093397;27;45108;-90
2022/08/19 11:11:44;;;;;;;;;2.00;1.50;;;;;26.48;59.87;101120.72;5090360;28;45233;-91
2022/08/19 11:14:13;;;;;;;;;2.50;2.00;;;;;26.40;59.93;101114.56;5094617;27;45845;-90
2022/08/19 11:16:40;;;;;;;;;3.00;3.00;;;;;26.26;60.07;101097.91;5100129;27;45013;-89
2022/08/19 11:19:07;;;;;;;;;2.25;2.25;;;;;26.10;59.91;101041.66;5123852;27;44778;-86
2022/08/19 11:21:35;;;;;;;;;4.00;3.00;;;;;26.55;58.86;101099.84;5104073;27;44979;-91
2022/08/19 11:24:05;;;;;;;;;1.25;1.25;;;;;26.28;59.37;101045.72;5108926;27;47497;-88
2022/08/19 11:26:32;;;;;;;;;3.00;2.75;;;;;26.63;59.17;101098.75;5087555;27;45337;-90
2022/08/19 11:28:58;;;;;;;;;3.00;3.00;;;;;26.49;58.92;101085.63;5092552;28;45107;-91
2022/08/19 11:31:27;;;;;;;;;2.75;2.75;;;;;26.49;59.39;101092.81;5093657;28;44905;-91
2022/08/19 11:33:53;;;;;;;;;3.00;3.00;;;;;26.18;59.61;101049.56;5093229;27;45824;-88
2022/08/19 11:36:21;;;;;;;;;2.25;2.25;;;;;26.32;59.52;101076.16;5108515;27;45374;-89
2022/08/19 11:38:48;;;;;;;;;4.25;3.50;;;;;26.34;59.86;101093.19;5092745;27;45028;-89
2022/08/19 11:41:14;;;;;;;;;1.00;1.00;;;;;26.15;59.95;101090.94;5093043;27;45232;-90